createdAt,value
2022-10-08T06:15:10.023Z,100.00
2022-10-08T06:25:09.924Z,100.00
2022-10-08T06:35:09.962Z,100.00
2022-10-08T06:45:09.945Z,100.00
2022-10-08T06:55:09.942Z,100.00
2022-10-08T07:05:09.914Z,100.00
2022-10-08T07:15:10.015Z,100.00
2022-10-08T07:25:09.971Z,100.00
2022-10-08T07:35:10.066Z,100.00
2022-10-08T07:45:09.972Z,100.00
2022-10-08T07:55:10.005Z,100.00
2022-10-08T08:05:10.027Z,100.00
2022-10-08T08:15:09.980Z,100.00
2022-10-08T08:25:09.994Z,100.00
2022-10-08T08:35:10.122Z,100.00
2022-10-08T08:45:18.863Z,100.00
2022-10-08T08:55:10.329Z,100.00
2022-10-08T09:05:10.568Z,100.00
2022-10-08T09:15:10.293Z,100.00
2022-10-08T09:25:10.455Z,100.00
2022-10-08T09:35:10.222Z,100.00
2022-10-08T09:45:10.352Z,100.00
2022-10-08T09:55:10.318Z,100.00
2022-10-08T10:05:10.382Z,100.00
2022-10-08T10:15:10.350Z,100.00
2022-10-08T10:25:10.254Z,97.21
2022-10-08T10:35:10.284Z,92.94
2022-10-08T10:45:10.304Z,91.29
2022-10-08T10:55:11.347Z,91.53
2022-10-08T11:05:10.499Z,92.43
2022-10-08T11:15:10.344Z,87.83
2022-10-08T11:25:10.396Z,87.17
2022-10-08T11:35:10.425Z,81.92
2022-10-08T11:45:10.335Z,82.82
2022-10-08T11:55:10.473Z,84.88
2022-10-08T12:05:10.378Z,100.00
2022-10-08T12:15:10.590Z,100.00
2022-10-08T12:25:10.471Z,100.00
2022-10-08T12:35:10.427Z,100.00
2022-10-08T12:45:10.501Z,100.00
2022-10-08T12:55:10.373Z,100.00
2022-10-08T13:05:10.522Z,100.00
2022-10-08T13:15:10.554Z,100.00
2022-10-08T13:25:10.349Z,100.00
2022-10-08T13:35:10.449Z,100.00
2022-10-08T13:45:10.524Z,98.85
2022-10-08T13:55:10.592Z,100.00
2022-10-08T14:05:10.640Z,100.00
2022-10-08T14:15:10.667Z,93.13
2022-10-08T14:25:10.614Z,77.87
2022-10-08T14:35:10.638Z,76.33
2022-10-08T14:45:10.625Z,76.61
2022-10-08T14:55:10.592Z,74.75
2022-10-08T15:05:10.518Z,74.21
2022-10-08T15:15:10.554Z,72.90
2022-10-08T15:25:10.716Z,72.64
2022-10-08T15:35:10.702Z,73.56
2022-10-08T15:45:10.703Z,74.23
2022-10-08T15:55:10.654Z,73.94
2022-10-08T16:05:10.609Z,76.16
2022-10-08T16:15:10.652Z,77.48
2022-10-08T16:25:11.033Z,81.16
2022-10-08T16:35:10.645Z,84.56
2022-10-08T16:45:10.671Z,87.36
2022-10-08T16:55:10.806Z,92.07
2022-10-08T17:05:10.973Z,96.71
2022-10-08T17:15:10.939Z,98.23
2022-10-08T17:25:10.789Z,96.50
2022-10-08T17:35:10.873Z,97.82
2022-10-08T17:45:10.834Z,100.00
2022-10-08T17:55:11.183Z,100.00
2022-10-08T18:05:10.785Z,100.00
2022-10-08T18:15:10.934Z,100.00
2022-10-08T18:25:12.200Z,100.00
2022-10-08T18:35:11.093Z,100.00
2022-10-08T18:45:11.535Z,100.00
2022-10-08T18:55:11.383Z,100.00
2022-10-08T19:05:11.565Z,100.00
2022-10-08T19:15:11.666Z,100.00
